Time;durP1;ratioP1;P1;durP2;ratioP2;P2;SDS_P1;SDS_P2;PMS_P1;PMS_P2;Temp;Humidity;BMP_temperature;BMP_pressure;BME280_temperature;BME280_humidity;BME280_pressure;Samples;Min_cycle;Max_cycle;Signal;HPM_P1;HPM_P2
2020/12/10 00:02:55;;;;;;;23.93;13.10;;;;;1.50;100236.00;;;;10427966;28;20884;-78
2020/12/10 00:07:58;;;;;;;23.23;12.53;;;;;1.50;100223.00;;;;10414041;28;20194;-79
2020/12/10 00:13:00;;;;;;;22.73;12.40;;;;;1.60;100228.00;;;;10410951;28;20187;-79
2020/12/10 00:18:03;;;;;;;20.90;11.43;;;;;1.70;100214.00;;;;10430708;28;20261;-79
2020/12/10 00:23:05;;;;;;;20.13;11.97;;;;;1.80;100205.00;;;;10419589;28;20203;-79
2020/12/10 00:28:07;;;;;;;22.47;10.90;;;;;1.90;100207.00;;;;10379852;28;20260;-78
2020/12/10 00:33:10;;;;;;;20.20;11.23;;;;;1.90;100205.00;;;;10410740;28;20207;-78
2020/12/10 00:38:12;;;;;;;20.97;12.30;;;;;2.00;100201.00;;;;10425510;28;20600;-79
2020/12/10 00:43:14;;;;;;;22.57;11.73;;;;;2.00;100203.00;;;;10407114;28;20559;-78
2020/12/10 00:48:16;;;;;;;21.43;11.83;;;;;2.10;100192.00;;;;10405883;28;20633;-78
2020/12/10 00:53:18;;;;;;;20.97;12.40;;;;;2.10;100186.00;;;;10404340;28;20245;-79
2020/12/10 00:58:21;;;;;;;18.67;11.70;;;;;2.20;100188.00;;;;10408609;28;20233;-79
2020/12/10 01:03:23;;;;;;;19.80;11.73;;;;;2.20;100177.00;;;;10433582;28;20207;-78
2020/12/10 01:08:25;;;;;;;19.07;10.47;;;;;2.20;100179.00;;;;10394363;28;20755;-79
2020/12/10 01:13:27;;;;;;;15.70;11.63;;;;;2.20;100162.00;;;;10426520;28;20717;-79
2020/12/10 01:18:30;;;;;;;17.83;11.43;;;;;2.30;100161.00;;;;10408424;28;20215;-79
2020/12/10 01:23:33;;;;;;;14.67;10.90;;;;;2.30;100157.00;;;;10411874;28;20213;-79
2020/12/10 01:28:36;;;;;;;16.90;11.30;;;;;2.30;100167.00;;;;10397493;28;20199;-78
2020/12/10 01:33:38;;;;;;;18.00;11.00;;;;;2.30;100165.00;;;;10399019;28;20240;-78
2020/12/10 01:38:40;;;;;;;17.23;11.47;;;;;2.40;100157.00;;;;10402701;28;20262;-78
2020/12/10 01:43:42;;;;;;;15.10;10.07;;;;;2.30;100153.00;;;;10408523;28;20203;-78
2020/12/10 01:48:44;;;;;;;12.03;8.73;;;;;2.30;100150.00;;;;10421132;28;20225;-78
2020/12/10 01:53:46;;;;;;;11.70;7.93;;;;;2.30;100151.00;;;;10407038;28;20207;-78
2020/12/10 01:58:49;;;;;;;13.30;8.60;;;;;2.30;100131.00;;;;10408008;28;20309;-78
2020/12/10 02:03:51;;;;;;;10.90;7.90;;;;;2.20;100125.00;;;;10441931;23;20277;-79
2020/12/10 02:08:53;;;;;;;10.67;7.37;;;;;2.30;100122.00;;;;10368341;28;20199;-78
2020/12/10 02:13:55;;;;;;;9.10;6.47;;;;;2.30;100123.00;;;;10410258;28;20217;-78
2020/12/10 02:18:57;;;;;;;10.27;6.30;;;;;2.30;100122.00;;;;10365362;28;20219;-78
2020/12/10 02:24:00;;;;;;;11.37;7.97;;;;;2.30;100111.00;;;;10381920;28;20203;-78
2020/12/10 02:29:03;;;;;;;8.00;5.50;;;;;2.30;100099.00;;;;10365558;28;20245;-78
2020/12/10 02:34:23;;;;;;;10.23;6.27;;;;;2.30;100087.00;;;;10391699;28;20198;-78
2020/12/10 02:39:25;;;;;;;8.37;5.90;;;;;2.40;100100.00;;;;10364658;28;20218;-78
2020/12/10 02:44:28;;;;;;;8.60;5.27;;;;;2.40;100088.00;;;;10365274;28;20229;-78
2020/12/10 02:49:30;;;;;;;7.60;5.13;;;;;2.30;100068.00;;;;10377404;28;20253;-78
2020/12/10 02:54:32;;;;;;;10.17;5.60;;;;;2.40;100078.00;;;;10365687;28;20214;-79
2020/12/10 02:59:35;;;;;;;9.87;6.17;;;;;2.30;100063.00;;;;10358463;28;20215;-78
2020/12/10 03:04:37;;;;;;;7.50;5.10;;;;;2.30;100059.00;;;;10379524;28;20230;-78
2020/12/10 03:09:39;;;;;;;8.90;5.00;;;;;2.30;100048.00;;;;10364367;28;20265;-79
2020/12/10 03:14:41;;;;;;;9.13;5.73;;;;;2.30;100042.00;;;;10380398;28;20198;-79
2020/12/10 03:19:43;;;;;;;8.10;5.43;;;;;2.20;100034.00;;;;10383032;28;20249;-79
2020/12/10 03:24:45;;;;;;;10.33;5.83;;;;;2.20;100037.00;;;;10386741;28;20199;-79
2020/12/10 03:29:47;;;;;;;9.30;6.13;;;;;2.30;100026.00;;;;10396860;28;20364;-79
2020/12/10 03:34:50;;;;;;;8.73;5.10;;;;;2.20;100032.00;;;;10390619;28;20273;-78
2020/12/10 03:39:52;;;;;;;8.50;5.50;;;;;2.30;100029.00;;;;10387711;28;20305;-78
2020/12/10 03:44:54;;;;;;;10.30;6.57;;;;;2.30;100023.00;;;;10370698;28;20229;-79
2020/12/10 03:49:56;;;;;;;10.60;6.60;;;;;2.30;100022.00;;;;10413410;28;20195;-79
2020/12/10 03:54:58;;;;;;;10.67;6.07;;;;;2.40;100024.00;;;;10370045;28;20888;-79
2020/12/10 04:00:00;;;;;;;12.50;6.97;;;;;2.60;100024.00;;;;10391792;28;20349;-79
2020/12/10 04:05:04;;;;;;;10.03;7.03;;;;;2.70;100030.00;;;;10395326;28;20223;-79
2020/12/10 04:10:06;;;;;;;11.73;7.10;;;;;2.90;100010.00;;;;10411294;28;20607;-78
2020/12/10 04:15:08;;;;;;;10.90;6.33;;;;;2.90;100008.00;;;;10384996;28;20252;-78
2020/12/10 04:20:10;;;;;;;13.07;6.87;;;;;3.00;100007.00;;;;10401312;28;20269;-79
2020/12/10 04:25:12;;;;;;;12.77;7.40;;;;;3.10;100019.00;;;;10399521;28;20661;-79
2020/12/10 04:30:20;;;;;;;10.90;7.20;;;;;3.10;100010.00;;;;10369949;28;20202;-78
2020/12/10 04:35:23;;;;;;;13.50;7.77;;;;;3.20;100019.00;;;;10377066;28;20202;-79
2020/12/10 04:40:25;;;;;;;14.40;6.90;;;;;3.20;100008.00;;;;10383180;28;20219;-79
2020/12/10 04:45:32;;;;;;;12.20;7.73;;;;;3.10;100013.00;;;;10400942;28;20199;-78
2020/12/10 04:50:40;;;;;;;11.73;7.20;;;;;3.10;100010.00;;;;10386808;28;20199;-79
2020/12/10 04:55:44;;;;;;;13.87;7.83;;;;;3.10;100011.00;;;;10372955;28;20212;-79
2020/12/10 05:00:46;;;;;;;13.97;7.50;;;;;3.10;100020.00;;;;10383656;28;21148;-79
2020/12/10 05:05:49;;;;;;;13.13;7.80;;;;;3.10;100022.00;;;;10360565;28;20692;-78
2020/12/10 05:10:51;;;;;;;14.07;7.50;;;;;3.10;100018.00;;;;10388761;28;20715;-78
2020/12/10 05:15:53;;;;;;;13.07;7.40;;;;;3.10;100018.00;;;;10375799;28;20249;-78
2020/12/10 05:20:58;;;;;;;14.40;8.20;;;;;3.10;100020.00;;;;10401635;28;20218;-78
2020/12/10 05:26:04;;;;;;;15.30;8.30;;;;;3.10;100020.00;;;;10387012;28;20206;-78
2020/12/10 05:31:15;;;;;;;14.63;8.33;;;;;3.10;100019.00;;;;10405464;28;20226;-78
2020/12/10 05:36:17;;;;;;;16.53;8.27;;;;;3.10;100008.00;;;;10401891;28;20222;-78
2020/12/10 05:41:24;;;;;;;18.80;8.07;;;;;3.10;100014.00;;;;10382138;28;20222;-78
2020/12/10 05:46:28;;;;;;;14.93;8.37;;;;;3.10;100012.00;;;;10387435;28;20219;-79
2020/12/10 05:51:48;;;;;;;13.67;7.13;;;;;3.20;100013.00;;;;10418659;28;20230;-78
2020/12/10 05:57:03;;;;;;;17.00;8.77;;;;;3.20;100018.00;;;;10366786;28;20230;-79
2020/12/10 06:02:07;;;;;;;14.13;7.67;;;;;3.20;100024.00;;;;10366429;28;20226;-79
2020/12/10 06:07:11;;;;;;;18.53;7.53;;;;;3.20;100024.00;;;;10395287;28;20226;-79
2020/12/10 06:12:13;;;;;;;14.67;8.40;;;;;3.20;100028.00;;;;10364736;28;20203;-78
2020/12/10 06:17:15;;;;;;;14.87;9.17;;;;;3.20;100026.00;;;;10417694;28;20572;-79
2020/12/10 06:22:34;;;;;;;15.50;8.27;;;;;3.20;100038.00;;;;10402934;28;20761;-79
2020/12/10 06:27:36;;;;;;;16.30;9.07;;;;;3.20;100045.00;;;;10405283;28;20206;-79
2020/12/10 06:32:56;;;;;;;15.87;8.87;;;;;3.20;100043.00;;;;10379093;28;20201;-79
2020/12/10 06:37:59;;;;;;;17.10;8.83;;;;;3.20;100051.00;;;;10403020;28;20553;-78
2020/12/10 06:43:02;;;;;;;18.33;9.90;;;;;3.20;100039.00;;;;10391619;28;20650;-79
2020/12/10 06:48:09;;;;;;;15.87;8.90;;;;;3.20;100046.00;;;;10379874;28;20286;-79
2020/12/10 06:53:22;;;;;;;15.87;9.73;;;;;3.10;100048.00;;;;10421301;28;20257;-79
2020/12/10 06:58:35;;;;;;;15.30;9.50;;;;;3.00;100052.00;;;;10414030;28;20222;-80
2020/12/10 07:03:38;;;;;;;18.53;9.43;;;;;2.90;100060.00;;;;10389467;28;20278;-78
2020/12/10 07:08:58;;;;;;;20.77;9.33;;;;;2.80;100057.00;;;;10407193;28;20194;-79
2020/12/10 07:14:01;;;;;;;17.30;9.23;;;;;2.80;100062.00;;;;10381911;28;20660;-78
2020/12/10 07:19:03;;;;;;;17.67;10.53;;;;;2.80;100060.00;;;;10407139;28;20582;-79
2020/12/10 07:24:06;;;;;;;17.80;9.83;;;;;2.70;100058.00;;;;10423082;28;20199;-79
2020/12/10 07:29:08;;;;;;;17.00;10.60;;;;;2.70;100058.00;;;;10406277;28;20199;-79
2020/12/10 07:34:13;;;;;;;17.70;10.00;;;;;2.90;100065.00;;;;10404996;28;20194;-79
2020/12/10 07:39:30;;;;;;;16.67;10.00;;;;;2.90;100059.00;;;;10396125;28;20226;-79
2020/12/10 07:44:34;;;;;;;18.07;10.10;;;;;2.90;100076.00;;;;10379306;28;20207;-79
2020/12/10 07:49:36;;;;;;;16.87;10.07;;;;;2.80;100074.00;;;;10393561;28;20199;-79
2020/12/10 07:54:48;;;;;;;20.33;10.43;;;;;2.80;100066.00;;;;10419794;28;20194;-79
2020/12/10 08:00:05;;;;;;;18.50;10.23;;;;;2.90;100063.00;;;;10394044;28;20226;-79
2020/12/10 08:05:17;;;;;;;19.63;10.03;;;;;2.90;100061.00;;;;10405844;28;20246;-78
2020/12/10 08:10:30;;;;;;;18.47;10.83;;;;;3.00;100061.00;;;;10420880;28;20199;-79
2020/12/10 08:15:32;;;;;;;18.10;9.80;;;;;3.00;100069.00;;;;10408227;28;20720;-79
2020/12/10 08:20:43;;;;;;;15.63;9.27;;;;;3.10;100064.00;;;;10420598;28;20218;-78
2020/12/10 08:25:47;;;;;;;17.07;11.10;;;;;3.20;100060.00;;;;10408914;28;20195;-79
2020/12/10 08:30:51;;;;;;;16.87;9.33;;;;;3.20;100062.00;;;;10414356;28;20665;-79
2020/12/10 08:35:53;;;;;;;17.47;9.80;;;;;3.30;100068.00;;;;10392866;28;20261;-79
2020/12/10 08:40:58;;;;;;;15.27;9.20;;;;;3.40;100079.00;;;;10370616;28;20740;-79
2020/12/10 08:46:14;;;;;;;16.67;10.57;;;;;3.50;100079.00;;;;10391803;28;20221;-78
2020/12/10 08:51:17;;;;;;;16.80;10.17;;;;;3.70;100084.00;;;;10390279;28;20277;-78
2020/12/10 08:56:25;;;;;;;17.33;9.93;;;;;3.70;100080.00;;;;10400094;28;20233;-79
2020/12/10 09:01:28;;;;;;;14.53;9.63;;;;;3.80;100091.00;;;;10359169;28;20215;-79
2020/12/10 09:06:42;;;;;;;15.60;9.40;;;;;3.90;100100.00;;;;10417383;28;20268;-79
2020/12/10 09:11:47;;;;;;;17.47;10.80;;;;;4.00;100096.00;;;;10407191;28;20238;-78
2020/12/10 09:16:51;;;;;;;13.67;8.87;;;;;4.10;100092.00;;;;10385450;28;20214;-79
2020/12/10 09:21:53;;;;;;;15.27;10.07;;;;;4.20;100093.00;;;;10416997;28;20210;-79
2020/12/10 09:26:56;;;;;;;15.73;9.33;;;;;4.30;100090.00;;;;10398089;28;20195;-78
2020/12/10 09:31:58;;;;;;;15.50;10.30;;;;;4.40;100096.00;;;;10408959;28;20195;-79
2020/12/10 09:37:01;;;;;;;15.57;9.90;;;;;4.60;100094.00;;;;10398165;28;20225;-78
2020/12/10 09:42:04;;;;;;;15.77;10.00;;;;;4.70;100093.00;;;;10405251;28;20203;-79
2020/12/10 09:47:09;;;;;;;17.73;9.73;;;;;4.80;100090.00;;;;10397903;28;20210;-79
2020/12/10 09:52:13;;;;;;;15.67;9.97;;;;;5.00;100081.00;;;;10366457;28;20197;-78
2020/12/10 09:57:32;;;;;;;15.13;9.03;;;;;5.10;100079.00;;;;10408265;28;20254;-79
2020/12/10 10:02:34;;;;;;;17.53;10.70;;;;;5.20;100076.00;;;;10396036;28;20203;-79
2020/12/10 10:07:39;;;;;;;13.47;9.30;;;;;5.20;100075.00;;;;10413492;28;20222;-79
2020/12/10 10:12:41;;;;;;;16.97;11.07;;;;;5.30;100059.00;;;;10397547;28;20226;-79
2020/12/10 10:17:43;;;;;;;18.53;11.40;;;;;5.40;100052.00;;;;10414073;28;20272;-78
2020/12/10 10:22:45;;;;;;;18.33;10.23;;;;;5.50;100052.00;;;;10381306;28;20211;-78
2020/12/10 10:27:49;;;;;;;17.93;10.60;;;;;5.50;100044.00;;;;10395469;28;20219;-79
2020/12/10 10:32:51;;;;;;;22.07;12.10;;;;;5.60;100045.00;;;;10395401;28;20198;-78
2020/12/10 10:37:54;;;;;;;19.37;11.70;;;;;5.60;100047.00;;;;10397888;28;20274;-79
2020/12/10 10:42:56;;;;;;;18.07;9.73;;;;;5.70;100035.00;;;;10381186;28;20212;-79
2020/12/10 10:47:59;;;;;;;14.73;10.10;;;;;5.80;100039.00;;;;10397314;28;20215;-79
2020/12/10 10:53:01;;;;;;;17.97;11.33;;;;;5.90;100047.00;;;;10403850;28;20199;-79
2020/12/10 10:58:03;;;;;;;14.33;10.03;;;;;6.00;100045.00;;;;10370209;28;20214;-79
2020/12/10 11:03:05;;;;;;;13.17;9.53;;;;;6.10;100049.00;;;;10395372;28;20219;-79
2020/12/10 11:08:07;;;;;;;13.23;9.37;;;;;6.20;100046.00;;;;10422405;28;20293;-79
2020/12/10 11:13:09;;;;;;;14.13;9.17;;;;;6.30;100045.00;;;;10378117;28;20198;-79
2020/12/10 11:18:11;;;;;;;14.23;10.03;;;;;6.40;100039.00;;;;10394963;28;20253;-79
2020/12/10 11:23:14;;;;;;;14.13;9.40;;;;;6.50;100038.00;;;;10397048;28;20203;-79
2020/12/10 11:28:16;;;;;;;14.70;9.63;;;;;6.50;100027.00;;;;10376347;28;20199;-79
2020/12/10 11:33:18;;;;;;;16.73;9.90;;;;;6.60;100033.00;;;;10395487;28;20207;-79
2020/12/10 11:38:21;;;;;;;15.60;9.40;;;;;6.60;100025.00;;;;10380405;28;20230;-79
2020/12/10 11:43:23;;;;;;;13.73;8.87;;;;;6.50;100028.00;;;;10394350;28;20230;-79
2020/12/10 11:48:25;;;;;;;13.13;8.90;;;;;6.30;100024.00;;;;10370678;28;20206;-80
2020/12/10 11:53:33;;;;;;;13.57;9.47;;;;;6.00;100016.00;;;;10405088;28;20222;-79
2020/12/10 11:58:35;;;;;;;12.00;8.10;;;;;5.90;100011.00;;;;10383789;28;20226;-79
2020/12/10 12:03:37;;;;;;;15.20;9.53;;;;;5.90;100010.00;;;;10407652;28;20305;-79
2020/12/10 12:08:39;;;;;;;14.13;9.97;;;;;6.10;99999.00;;;;10386429;28;20202;-79
2020/12/10 12:13:42;;;;;;;15.10;9.27;;;;;6.80;99990.00;;;;10401960;28;20400;-80
2020/12/10 12:18:44;;;;;;;14.57;9.80;;;;;7.50;99993.00;;;;10404906;28;20219;-80
2020/12/10 12:23:46;;;;;;;13.93;8.50;;;;;7.80;99994.00;;;;10404893;28;20613;-79
2020/12/10 12:28:49;;;;;;;13.20;9.13;;;;;7.90;99993.00;;;;10384291;28;20195;-79
2020/12/10 12:33:52;;;;;;;13.63;9.13;;;;;7.80;99983.00;;;;10401934;28;20198;-79
2020/12/10 12:38:55;;;;;;;14.80;9.03;;;;;7.80;99972.00;;;;10424275;28;20802;-79
2020/12/10 12:43:57;;;;;;;14.60;9.20;;;;;7.70;99977.00;;;;10384370;28;20201;-80
2020/12/10 12:49:00;;;;;;;13.97;8.63;;;;;7.20;99972.00;;;;10369276;28;20668;-79
2020/12/10 12:54:02;;;;;;;15.30;8.93;;;;;7.30;99969.00;;;;10371497;28;20202;-79
2020/12/10 12:59:04;;;;;;;11.87;8.57;;;;;7.40;99962.00;;;;10400783;28;20243;-79
2020/12/10 13:04:11;;;;;;;14.33;8.23;;;;;7.50;99971.00;;;;10398530;28;20218;-78
2020/12/10 13:09:14;;;;;;;15.17;9.60;;;;;7.10;99957.00;;;;10381904;28;20195;-80
2020/12/10 13:14:16;;;;;;;12.83;8.77;;;;;7.40;99946.00;;;;10367258;28;20210;-79
2020/12/10 13:19:19;;;;;;;12.47;8.50;;;;;8.10;99943.00;;;;10382368;28;20345;-80
2020/12/10 13:24:21;;;;;;;14.70;9.37;;;;;8.20;99947.00;;;;10403967;28;20203;-79
2020/12/10 13:29:23;;;;;;;12.30;7.90;;;;;8.40;99941.00;;;;10408552;28;20600;-80
2020/12/10 13:34:25;;;;;;;12.83;9.30;;;;;8.40;99941.00;;;;10406560;28;20199;-80
2020/12/10 13:39:28;;;;;;;12.97;8.70;;;;;8.00;99943.00;;;;10364818;28;20329;-79
2020/12/10 13:44:30;;;;;;;11.67;8.23;;;;;7.60;99951.00;;;;10353200;28;20210;-79
2020/12/10 13:49:32;;;;;;;13.70;8.93;;;;;7.20;99949.00;;;;10396832;28;20257;-80
2020/12/10 13:54:36;;;;;;;13.40;9.20;;;;;6.90;99946.00;;;;10391198;28;20209;-79
2020/12/10 13:59:39;;;;;;;12.47;8.80;;;;;6.60;99946.00;;;;10426524;28;20225;-80
2020/12/10 14:04:42;;;;;;;14.33;9.23;;;;;6.40;99949.00;;;;10418318;28;20222;-78
2020/12/10 14:09:44;;;;;;;13.33;9.07;;;;;6.20;99963.00;;;;10422552;28;20198;-80
2020/12/10 14:14:46;;;;;;;14.93;9.57;;;;;6.10;99965.00;;;;10443790;28;20209;-80
2020/12/10 14:19:48;;;;;;;13.47;8.53;;;;;6.10;99970.00;;;;10423966;28;20288;-80
2020/12/10 14:24:50;;;;;;;16.13;10.10;;;;;6.00;99971.00;;;;10406940;28;20217;-79
2020/12/10 14:29:52;;;;;;;14.10;9.63;;;;;5.80;99974.00;;;;10447673;28;20194;-80
2020/12/10 14:34:54;;;;;;;14.90;9.60;;;;;5.60;99982.00;;;;10414583;28;20218;-80
2020/12/10 14:39:57;;;;;;;14.27;9.40;;;;;5.50;99986.00;;;;10422091;28;20275;-80
2020/12/10 14:44:59;;;;;;;13.00;9.43;;;;;5.40;99976.00;;;;10406486;28;20190;-79
2020/12/10 14:50:01;;;;;;;13.43;9.00;;;;;5.30;99985.00;;;;10406185;28;20255;-80
2020/12/10 14:55:03;;;;;;;14.50;9.80;;;;;5.20;99986.00;;;;10423836;28;20204;-79
2020/12/10 15:00:05;;;;;;;17.50;11.17;;;;;5.10;99986.00;;;;10454430;28;20218;-80
2020/12/10 15:05:07;;;;;;;15.63;10.13;;;;;4.90;99984.00;;;;10417099;28;20217;-79
2020/12/10 15:10:09;;;;;;;15.50;9.70;;;;;4.80;99988.00;;;;10431138;28;20529;-80
2020/12/10 15:15:12;;;;;;;16.47;10.60;;;;;4.60;99990.00;;;;10409227;28;20198;-79
2020/12/10 15:20:16;;;;;;;19.17;11.30;;;;;4.30;99984.00;;;;10443791;28;20222;-79
2020/12/10 15:25:19;;;;;;;18.73;10.50;;;;;4.10;99982.00;;;;10452683;28;20564;-80
2020/12/10 15:30:21;;;;;;;16.53;10.23;;;;;3.90;99986.00;;;;10445756;28;20796;-79
2020/12/10 15:35:23;;;;;;;19.60;11.47;;;;;3.70;99982.00;;;;10462141;28;20616;-79
2020/12/10 15:40:27;;;;;;;18.00;10.57;;;;;3.60;99985.00;;;;10455094;28;20218;-79
2020/12/10 15:45:29;;;;;;;18.63;11.30;;;;;3.40;99980.00;;;;10444209;28;20201;-80
2020/12/10 15:50:31;;;;;;;17.57;10.53;;;;;3.30;99983.00;;;;10434127;28;20569;-80
2020/12/10 15:55:33;;;;;;;17.57;12.03;;;;;3.10;99985.00;;;;10434907;28;20293;-80
2020/12/10 16:00:35;;;;;;;19.77;11.53;;;;;3.00;99987.00;;;;10441521;28;20696;-80
2020/12/10 16:05:38;;;;;;;15.10;10.17;;;;;2.90;99989.00;;;;10434294;28;20284;-80
2020/12/10 16:10:40;;;;;;;17.20;10.53;;;;;2.80;99984.00;;;;10426670;28;20337;-79
2020/12/10 16:15:42;;;;;;;20.43;12.23;;;;;2.70;99975.00;;;;10426479;28;20202;-79
2020/12/10 16:20:44;;;;;;;25.70;15.17;;;;;2.60;99973.00;;;;10443423;28;20292;-79
2020/12/10 16:25:46;;;;;;;42.23;25.97;;;;;2.50;99968.00;;;;10439360;28;20202;-80
2020/12/10 16:30:49;;;;;;;58.17;34.50;;;;;2.40;99968.00;;;;10432282;28;20202;-80
2020/12/10 16:35:52;;;;;;;21.57;12.83;;;;;2.30;99970.00;;;;10459432;28;20210;-79
2020/12/10 16:40:54;;;;;;;18.47;11.47;;;;;2.10;99971.00;;;;10452771;28;20221;-79
2020/12/10 16:45:56;;;;;;;19.43;12.43;;;;;1.80;99968.00;;;;10440290;28;20202;-78
2020/12/10 16:50:58;;;;;;;23.10;13.27;;;;;1.80;99965.00;;;;10425763;28;20206;-79
2020/12/10 16:56:00;;;;;;;28.43;18.17;;;;;1.80;99957.00;;;;10448599;28;20224;-79
2020/12/10 17:01:07;;;;;;;29.33;17.27;;;;;1.80;99960.00;;;;10456778;28;20244;-80
2020/12/10 17:06:09;;;;;;;23.80;13.67;;;;;1.70;99957.00;;;;10440856;28;20218;-79
2020/12/10 17:11:18;;;;;;;30.00;17.23;;;;;1.80;99957.00;;;;10429310;28;20202;-79
2020/12/10 17:16:21;;;;;;;30.47;19.70;;;;;1.90;99954.00;;;;10440043;28;20202;-80
2020/12/10 17:21:23;;;;;;;28.77;17.20;;;;;1.90;99944.00;;;;10457621;28;20246;-80
2020/12/10 17:26:30;;;;;;;22.53;14.33;;;;;1.90;99936.00;;;;10432244;28;20568;-79
2020/12/10 17:31:33;;;;;;;23.97;13.97;;;;;1.80;99918.00;;;;10447923;28;20194;-79
2020/12/10 17:36:35;;;;;;;22.47;13.97;;;;;1.80;99928.00;;;;10439711;28;20229;-79
2020/12/10 17:41:37;;;;;;;24.03;13.73;;;;;1.80;99924.00;;;;10438721;28;20218;-79
2020/12/10 17:46:39;;;;;;;22.50;13.63;;;;;1.70;99924.00;;;;10422139;28;20198;-79
2020/12/10 17:51:42;;;;;;;22.73;13.80;;;;;1.80;99920.00;;;;10439435;28;20248;-79
2020/12/10 17:56:47;;;;;;;25.13;13.90;;;;;1.80;99914.00;;;;10439446;28;20225;-79
2020/12/10 18:01:50;;;;;;;21.47;12.67;;;;;1.80;99901.00;;;;10443213;28;20279;-79
2020/12/10 18:06:52;;;;;;;19.33;12.80;;;;;1.80;99882.00;;;;10410802;28;20222;-80
2020/12/10 18:11:55;;;;;;;19.70;12.47;;;;;1.70;99878.00;;;;10439853;28;20263;-79
2020/12/10 18:17:00;;;;;;;20.47;13.37;;;;;1.70;99883.00;;;;10437439;28;20284;-79
2020/12/10 18:22:02;;;;;;;23.00;12.73;;;;;1.70;99883.00;;;;10438934;28;20218;-79
2020/12/10 18:27:04;;;;;;;22.03;13.70;;;;;1.70;99883.00;;;;10421974;28;20526;-79
2020/12/10 18:32:07;;;;;;;20.83;13.37;;;;;1.70;99893.00;;;;10454704;28;20241;-80
2020/12/10 18:37:11;;;;;;;21.87;13.23;;;;;1.60;99888.00;;;;10421251;28;20190;-80
2020/12/10 18:42:15;;;;;;;22.43;12.90;;;;;1.50;99887.00;;;;10438111;28;20218;-80
2020/12/10 18:47:18;;;;;;;21.90;13.23;;;;;1.50;99879.00;;;;10421177;28;20202;-79
2020/12/10 18:52:21;;;;;;;23.80;14.57;;;;;1.50;99898.00;;;;10405212;28;20199;-80
2020/12/10 18:57:23;;;;;;;19.67;11.97;;;;;1.60;99897.00;;;;10415015;28;20206;-79
2020/12/10 19:02:28;;;;;;;19.90;12.30;;;;;1.60;99888.00;;;;10438113;28;20260;-79
2020/12/10 19:07:38;;;;;;;18.20;12.00;;;;;1.80;99891.00;;;;10417802;28;20656;-80
2020/12/10 19:12:40;;;;;;;17.27;11.13;;;;;1.80;99903.00;;;;10438472;28;20722;-79
2020/12/10 19:17:42;;;;;;;21.90;12.50;;;;;1.90;99903.00;;;;10446526;28;20281;-80
2020/12/10 19:22:44;;;;;;;18.73;12.07;;;;;1.90;99904.00;;;;10439924;28;20225;-80
2020/12/10 19:27:47;;;;;;;16.90;10.97;;;;;2.00;99906.00;;;;10439297;28;20731;-80
2020/12/10 19:32:49;;;;;;;17.97;11.77;;;;;1.90;99906.00;;;;10408469;28;20190;-79
2020/12/10 19:37:51;;;;;;;22.80;13.67;;;;;2.00;99908.00;;;;10434720;28;20274;-79
2020/12/10 19:42:53;;;;;;;17.90;12.77;;;;;2.00;99907.00;;;;10439289;28;20198;-79
2020/12/10 19:47:55;;;;;;;19.23;13.80;;;;;1.90;99910.00;;;;10439260;28;20202;-80
2020/12/10 19:52:58;;;;;;;18.40;12.50;;;;;1.90;99900.00;;;;10409203;28;20286;-79
2020/12/10 19:58:00;;;;;;;23.70;15.40;;;;;1.90;99890.00;;;;10426298;28;20263;-80
2020/12/10 20:03:02;;;;;;;24.13;16.20;;;;;1.80;99879.00;;;;10440235;28;20222;-79
2020/12/10 20:08:05;;;;;;;20.13;13.67;;;;;1.70;99871.00;;;;10428268;28;20252;-80
2020/12/10 20:13:08;;;;;;;21.93;14.07;;;;;1.60;99847.00;;;;10445197;28;22950;-79
2020/12/10 20:18:10;;;;;;;21.83;13.90;;;;;1.40;99845.00;;;;10447590;28;20355;-79
2020/12/10 20:23:12;;;;;;;22.40;14.40;;;;;1.20;99839.00;;;;10443515;28;20205;-80
2020/12/10 20:28:15;;;;;;;21.73;14.20;;;;;1.10;99822.00;;;;10430905;28;20206;-79
2020/12/10 20:33:17;;;;;;;23.40;15.37;;;;;1.00;99808.00;;;;10445997;28;20202;-80
2020/12/10 20:38:36;;;;;;;25.93;16.37;;;;;1.00;99802.00;;;;10459359;28;20220;-80
2020/12/10 20:43:41;;;;;;;27.63;17.43;;;;;0.90;99790.00;;;;10444295;28;20263;-79
2020/12/10 20:48:43;;;;;;;22.43;15.40;;;;;0.80;99787.00;;;;10422727;28;20198;-80
2020/12/10 20:53:45;;;;;;;24.97;16.50;;;;;0.80;99787.00;;;;10431545;28;20266;-79
2020/12/10 20:58:48;;;;;;;27.03;17.37;;;;;0.70;99780.00;;;;10427644;28;20225;-79
2020/12/10 21:03:50;;;;;;;24.93;17.30;;;;;0.70;99765.00;;;;10428698;28;20241;-79
2020/12/10 21:08:52;;;;;;;28.40;18.80;;;;;0.90;99756.00;;;;10424404;28;20198;-79
2020/12/10 21:13:55;;;;;;;26.43;17.47;;;;;1.00;99745.00;;;;10439137;28;20595;-79
2020/12/10 21:18:57;;;;;;;22.83;16.57;;;;;1.00;99740.00;;;;10438911;28;20210;-80
2020/12/10 21:24:00;;;;;;;27.80;17.60;;;;;1.00;99739.00;;;;10438782;28;20237;-79
2020/12/10 21:29:02;;;;;;;23.40;15.83;;;;;1.10;99750.00;;;;10422133;28;20202;-79
2020/12/10 21:34:04;;;;;;;27.00;17.57;;;;;1.10;99746.00;;;;10439424;28;20206;-79
2020/12/10 21:39:06;;;;;;;26.63;16.80;;;;;1.20;99778.00;;;;10426455;28;20263;-79
2020/12/10 21:44:08;;;;;;;31.40;17.00;;;;;1.20;99762.00;;;;10439816;28;20565;-79
2020/12/10 21:49:10;;;;;;;27.43;16.70;;;;;1.10;99772.00;;;;10456710;28;20202;-79
2020/12/10 21:54:12;;;;;;;25.20;16.70;;;;;1.00;99756.00;;;;10438625;28;20195;-79
2020/12/10 21:59:15;;;;;;;25.97;18.00;;;;;0.90;99750.00;;;;10439118;28;20218;-79
2020/12/10 22:04:17;;;;;;;24.93;15.97;;;;;0.90;99740.00;;;;10436149;28;20234;-80
2020/12/10 22:09:19;;;;;;;24.77;17.37;;;;;0.90;99734.00;;;;10440535;28;20210;-79
2020/12/10 22:14:21;;;;;;;26.27;17.20;;;;;0.90;99727.00;;;;10427673;28;20229;-79
2020/12/10 22:19:27;;;;;;;28.63;16.63;;;;;0.90;99711.00;;;;10436577;28;20221;-79
2020/12/10 22:24:31;;;;;;;25.47;15.60;;;;;1.00;99711.00;;;;10433980;28;20202;-78
2020/12/10 22:29:33;;;;;;;26.63;16.63;;;;;1.00;99701.00;;;;10422930;28;20214;-80
2020/12/10 22:34:35;;;;;;;29.03;16.70;;;;;0.90;99691.00;;;;10421823;28;20253;-78
2020/12/10 22:39:37;;;;;;;30.77;16.43;;;;;0.90;99686.00;;;;10436424;28;20758;-79
2020/12/10 22:44:39;;;;;;;29.00;17.17;;;;;1.00;99661.00;;;;10449387;28;20209;-79
2020/12/10 22:49:41;;;;;;;29.20;16.10;;;;;1.00;99640.00;;;;10452682;28;20198;-79
2020/12/10 22:54:43;;;;;;;30.73;17.93;;;;;1.00;99634.00;;;;10423531;28;20240;-79
2020/12/10 22:59:48;;;;;;;27.20;16.13;;;;;1.00;99610.00;;;;10431319;28;20249;-80
2020/12/10 23:04:50;;;;;;;26.80;15.33;;;;;1.00;99598.00;;;;10446388;28;20249;-79
2020/12/10 23:09:53;;;;;;;29.90;17.37;;;;;1.00;99595.00;;;;10433070;28;20226;-79
2020/12/10 23:14:55;;;;;;;22.53;13.27;;;;;1.00;99577.00;;;;10437964;28;20198;-79
2020/12/10 23:19:59;;;;;;;24.93;15.57;;;;;1.00;99557.00;;;;10441895;28;20218;-78
2020/12/10 23:25:01;;;;;;;25.93;16.13;;;;;1.00;99556.00;;;;10425873;28;20195;-79
2020/12/10 23:30:07;;;;;;;27.40;16.67;;;;;1.00;99562.00;;;;10437241;28;20202;-79
2020/12/10 23:35:12;;;;;;;25.27;16.47;;;;;1.00;99546.00;;;;10421956;28;20198;-78
2020/12/10 23:40:15;;;;;;;27.97;17.37;;;;;1.00;99538.00;;;;10452082;28;20222;-79
2020/12/10 23:45:18;;;;;;;24.40;15.43;;;;;1.10;99529.00;;;;10444737;28;20206;-79
2020/12/10 23:50:21;;;;;;;27.23;16.17;;;;;1.20;99516.00;;;;10441873;28;20202;-79
2020/12/10 23:55:23;;;;;;;27.97;17.07;;;;;1.20;99499.00;;;;10427662;28;20234;-79
